Data for 09/22/2009

Time Sea-Level Adjusted Pressure Absolute Pressure Temperature Relative Humidity Dew Point   
(mb) (inHg) (mb) (inHg) (C) (F) (%) (C) (F)
00:05 1028 30.36 858 25.34 7.6 45.6 43 -4.2 24.4
00:10 1028 30.36 858 25.34 7.5 45.5 42 -4.7 23.5
00:15 1028 30.36 858 25.34 7.8 46 41 -4.5 23.9
00:20 1028 30.36 858 25.34 7.8 46 44 -3.7 25.3
00:25 1028 30.36 858 25.34 7.5 45.5 44 -4.1 24.6
00:30 1028 30.36 858 25.34 7.3 45.1 42 -4.7 23.5
00:35 1028 30.36 858 25.34 7.6 45.6 41 -4.7 23.5
00:40 1028 30.36 857 25.31 7.5 45.5 42 -4.6 23.7
00:45 1028 30.36 857 25.31 7.6 45.6 43 -4.3 24.3
00:50 1028 30.36 857 25.31 7.7 45.9 42 -4.4 24
00:55 1028 30.36 858 25.34 7.5 45.5 44 -3.8 25.1
01:00 1028 30.36 857 25.31 6.9 44.5 46 -4 24.8
01:05 1028 30.36 857 25.31 6.8 44.3 44 -4.5 24
01:10 1028 30.36 858 25.34 6.9 44.4 47 -3.6 25.5
01:15 1028 30.36 858 25.34 6.5 43.7 48 -3.7 25.3
01:20 1029 30.39 858 25.34 6.6 43.9 45 -4.5 24
01:25 1029 30.39 858 25.34 6.6 43.9 47 -4 24.9
01:30 1028 30.36 858 25.34 6.4 43.6 46 -4.2 24.4
01:35 1028 30.36 858 25.34 6.5 43.6 46 -4.3 24.3
01:40 1029 30.39 858 25.34 6.4 43.6 45 -4.7 23.6
01:45 1029 30.39 858 25.34 6.7 44.1 43 -5.1 22.8
01:50 1029 30.39 858 25.34 7.3 45.1 41 -5.2 22.7
01:55 1029 30.39 858 25.34 7.8 46 39 -5.4 22.3
02:00 1029 30.39 858 25.34 8 46.4 39 -5.2 22.7
02:05 1029 30.39 858 25.34 7.9 46.2 44 -3.6 25.6
02:10 1029 30.39 858 25.34 7.5 45.5 46 -3.3 26.1
02:15 1029 30.39 858 25.34 7.2 44.9 48 -3.1 26.4
02:20 1029 30.39 858 25.34 7 44.5 47 -3.5 25.6
02:25 1029 30.39 858 25.34 6.9 44.4 47 -3.6 25.5
02:30 1029 30.39 858 25.34 7 44.5 48 -3.4 25.8
02:35 1029 30.39 858 25.34 6.9 44.5 47 -3.5 25.7
02:40 1029 30.39 858 25.34 6.9 44.4 47 -3.6 25.5
02:45 1029 30.39 858 25.34 7 44.6 46 -3.7 25.3
02:50 1029 30.39 858 25.34 6.8 44.3 46 -3.9 25
02:55 1029 30.39 858 25.34 6.9 44.4 47 -3.6 25.5
03:00 1029 30.39 858 25.34 7 44.5 47 -3.5 25.6
03:05 1029 30.39 858 25.34 6.5 43.6 49 -3.4 25.9
03:10 1029 30.39 858 25.34 6.3 43.4 49 -3.6 25.5
03:15 1029 30.39 858 25.34 6.4 43.6 49 -3.4 25.9
03:20 1029 30.39 858 25.34 6.5 43.8 49 -3.4 26
03:25 1029 30.39 858 25.34 6.5 43.6 48 -3.7 25.3
03:30 1029 30.39 858 25.34 6.6 43.8 49 -3.5 25.8
03:35 1029 30.39 858 25.34 6.2 43.2 49 -3.6 25.5
03:40 1029 30.39 858 25.34 6.1 43 50 -3.6 25.5
03:45 1029 30.39 858 25.34 6 42.9 49 -3.9 25
03:50 1029 30.39 858 25.34 6.1 42.9 50 -3.4 25.8
03:55 1029 30.39 858 25.34 5.8 42.4 52 -3.4 25.9
04:00 1029 30.39 858 25.34 5.5 41.9 52 -3.6 25.4
04:05 1029 30.39 858 25.34 5.4 41.7 52 -3.7 25.4
04:10 1029 30.39 858 25.34 5.3 41.6 52 -3.7 25.3
04:15 1029 30.39 858 25.34 5.6 42.1 50 -3.9 25
04:20 1029 30.39 859 25.37 5.7 42.3 50 -3.8 25.1
04:25 1029 30.39 859 25.37 5.8 42.5 50 -3.7 25.3
04:30 1029 30.39 859 25.37 5.8 42.5 50 -3.8 25.2
04:35 1029 30.39 859 25.37 5.8 42.5 51 -3.6 25.4
04:40 1029 30.39 859 25.37 5.7 42.3 50 -3.8 25.1
04:45 1029 30.39 859 25.37 5.8 42.4 51 -3.6 25.6
04:50 1029 30.39 859 25.37 5.8 42.5 50 -3.8 25.1
04:55 1029 30.39 859 25.37 6.1 43.1 49 -3.7 25.3
05:00 1029 30.39 859 25.37 6.3 43.3 48 -3.8 25.1
05:05 1029 30.39 859 25.37 6.5 43.8 48 -3.7 25.3
05:10 1029 30.39 859 25.37 6.7 44.1 47 -3.7 25.3
05:15 1029 30.39 859 25.37 6.9 44.4 46 -3.8 25.2
05:20 1029 30.39 859 25.37 7.2 44.9 47 -3.4 25.9
05:25 1030 30.42 859 25.37 6.9 44.4 52 -2.4 27.7
05:30 1030 30.42 859 25.37 6.2 43.2 55 -2 28.4
05:35 1030 30.42 859 25.37 5.8 42.5 57 -2.1 28.2
05:40 1030 30.42 859 25.37 5.6 42.1 57 -2.3 27.9
05:45 1030 30.42 859 25.37 5.6 42 58 -2.1 28.2
05:50 1030 30.42 859 25.37 5.5 41.9 58 -2.1 28.3
05:55 1030 30.42 859 25.37 5.4 41.7 57 -2.3 27.8
06:00 1029 30.39 859 25.37 5.6 42.1 57 -2.2 28.1
06:05 1030 30.42 859 25.37 5.3 41.6 59 -2 28.4
06:10 1030 30.42 859 25.37 5.2 41.4 57 -2.5 27.6
06:15 1030 30.42 859 25.37 5.3 41.6 55 -2.9 26.9
06:20 1030 30.42 859 25.37 5.8 42.4 53 -3 26.6
06:25 1030 30.42 859 25.37 6.2 43.1 52 -3.1 26.5
06:30 1029 30.39 859 25.37 6.5 43.7 51 -3 26.7
06:35 1029 30.39 859 25.37 6.4 43.6 51 -2.9 26.9
06:40 1030 30.42 859 25.37 6.4 43.5 52 -2.8 27
06:45 1030 30.42 859 25.37 6.5 43.7 51 -2.8 26.9
06:50 1030 30.42 859 25.37 6.3 43.3 53 -2.6 27.3
06:55 1030 30.42 859 25.37 5.9 42.6 54 -2.8 27
07:00 1030 30.42 859 25.37 6 42.8 52 -3.1 26.4
07:05 1030 30.42 859 25.37 6.4 43.5 52 -2.8 27
07:10 1030 30.42 859 25.37 6 42.8 55 -2.3 27.8
07:15 1030 30.42 859 25.37 5.5 41.9 55 -2.8 27
07:20 1030 30.42 859 25.37 5.4 41.8 56 -2.7 27.1
07:25 1030 30.42 859 25.37 5.2 41.4 56 -2.9 26.8
07:30 1030 30.42 859 25.37 5.5 41.9 53 -3.2 26.2
07:35 1030 30.42 859 25.37 6.1 43 52 -3.1 26.4
07:40 1030 30.42 859 25.37 6.4 43.5 51 -3.1 26.5
07:45 1030 30.42 859 25.37 6.5 43.8 50 -3 26.5
07:50 1030 30.42 859 25.37 6.6 43.9 50 -3.2 26.3
07:55 1030 30.42 859 25.37 6.9 44.4 48 -3.4 25.8
08:00 1030 30.42 859 25.37 7.4 45.3 47 -3 26.6
08:05 1030 30.42 859 25.37 7.3 45.2 51 -2.1 28.3
08:10 1030 30.42 859 25.37 7.3 45.2 52 -1.9 28.5
08:15 1030 30.42 859 25.37 7.5 45.4 51 -2 28.3
08:20 1030 30.42 859 25.37 7.6 45.6 52 -1.6 29.1
08:25 1030 30.42 859 25.37 7.8 46 52 -1.5 29.4
08:30 1030 30.42 859 25.37 8.3 46.9 48 -2 28.5
08:35 1030 30.42 859 25.37 8.9 47.9 45 -2.4 27.6
08:40 1030 30.42 860 25.4 9.1 48.3 45 -2.2 28.1
08:45 1030 30.42 860 25.4 8.8 47.8 47 -2 28.4
08:50 1030 30.42 860 25.4 9.1 48.3 45 -2.2 28.1
08:55 1030 30.42 860 25.4 9.5 49.1 44 -2 28.5
09:00 1030 30.42 860 25.4 10 50.1 44 -1.6 29.1
09:05 1030 30.42 860 25.4 10.4 50.7 44 -1.2 29.9
09:10 1030 30.42 860 25.4 10.7 51.2 44 -0.9 30.4
09:15 1030 30.42 860 25.4 11.5 52.7 41 -1.2 29.9
09:20 1030 30.42 860 25.4 12.2 54 37 -1.9 28.7
09:25 1030 30.42 860 25.4 12.6 54.7 39 -0.9 30.4
09:30 1030 30.42 860 25.4 12.8 55.1 35 -2.1 28.3
09:35 1030 30.42 860 25.4 13.4 56.1 34 -1.9 28.6
09:40 1031 30.45 860 25.4 14 57.3 32 -2.3 27.9
09:45 1031 30.45 860 25.4 14.3 57.7 32 -2 28.5
09:50 1031 30.45 860 25.4 14.5 58.1 32 -1.9 28.6
09:55 1031 30.45 860 25.4 14.8 58.6 33 -1.3 29.7
10:00 1031 30.45 860 25.4 14.5 58.2 32 -1.7 29
10:05 1031 30.45 860 25.4 14.6 58.2 33 -1.6 29.2
10:10 1031 30.45 860 25.4 15.2 59.4 31 -1.6 29
10:15 1031 30.45 860 25.4 15.4 59.8 32 -1 30.2
10:20 1031 30.45 860 25.4 15.1 59.2 32 -1.2 29.8
10:25 1031 30.45 860 25.4 15.4 59.8 33 -0.7 30.7
10:30 1031 30.45 860 25.4 15.7 60.3 31 -1.4 29.5
10:35 1031 30.45 860 25.4 16.2 61.1 31 -1 30.2
10:40 1031 30.45 860 25.4 15.9 60.7 31 -1.1 29.9
10:45 1031 30.45 860 25.4 15.9 60.6 29 -2.1 28.3
10:50 1031 30.45 860 25.4 16.3 61.3 28 -1.9 28.6
10:55 1031 30.45 860 25.4 16.3 61.3 30 -1.3 29.6
11:00 1031 30.45 860 25.4 15.8 60.4 29 -2.1 28.2
11:05 1031 30.45 860 25.4 16.6 61.9 29 -1.2 29.9
11:10 1031 30.45 860 25.4 16 60.9 31 -1 30.2
11:15 1031 30.45 860 25.4 15.8 60.5 29 -1.9 28.6
11:20 1031 30.45 860 25.4 17 62.6 27 -2 28.4
11:25 1031 30.45 860 25.4 17.4 63.4 27 -1.5 29.3
11:30 1031 30.45 860 25.4 17.7 63.9 25 -2.3 27.9
11:35 1031 30.45 860 25.4 17.8 64.1 28 -0.7 30.8
11:40 1031 30.45 860 25.4 17.7 63.8 27 -1.4 29.5
11:45 1031 30.45 860 25.4 17.8 64.1 26 -1.9 28.6
11:50 1031 30.45 860 25.4 17.9 64.3 26 -1.8 28.8
11:55 1031 30.45 860 25.4 17.7 63.9 28 -0.9 30.3
12:00 1030 30.42 860 25.4 17.5 63.5 27 -1.8 28.8
12:05 1030 30.42 860 25.4 18.2 64.7 25 -2.3 27.9
12:10 1030 30.42 860 25.4 18.5 65.4 26 -1.4 29.4
12:15 1030 30.42 860 25.4 18.9 66.1 25 -1.6 29
12:20 1030 30.42 860 25.4 17.6 63.6 27 -1.3 29.6
12:25 1030 30.42 859 25.37 16.9 62.4 28 -1.7 29
12:30 1030 30.42 859 25.37 17.7 63.8 25 -2.5 27.5
12:35 1030 30.42 859 25.37 18.8 65.9 24 -2.3 27.9
12:40 1030 30.42 859 25.37 18.8 65.8 24 -2 28.3
12:45 1030 30.42 859 25.37 19 66.2 24 -2.1 28.2
12:50 1030 30.42 859 25.37 19.4 66.8 23 -2.4 27.7
12:55 1030 30.42 859 25.37 19.1 66.4 23 -2.3 27.9
13:00 1030 30.42 859 25.37 19.3 66.8 23 -2 28.4
13:05 1030 30.42 859 25.37 19.3 66.7 23 -2.1 28.2
13:10 1030 30.42 859 25.37 19.7 67.4 23 -2.2 28
13:15 1030 30.42 859 25.37 19.9 67.7 22 -2.2 28
13:20 1030 30.42 859 25.37 20 68.1 21 -2.5 27.4
13:25 1030 30.42 859 25.37 20 67.9 22 -2.1 28.2
13:30 1030 30.42 859 25.37 19.9 67.8 22 -2 28.4
13:35 1030 30.42 859 25.37 20 67.9 22 -2.3 27.9
13:40 1030 30.42 859 25.37 20.4 68.7 22 -2.1 28.2
13:45 1030 30.42 859 25.37 20.2 68.3 20 -3.2 26.3
13:50 1030 30.42 859 25.37 20.2 68.3 22 -2.1 28.2
13:55 1030 30.42 859 25.37 20 68 22 -2.4 27.6
14:00 1030 30.42 859 25.37 20.5 68.8 21 -2.6 27.3
14:05 1030 30.42 859 25.37 20.9 69.6 21 -2.1 28.3
14:10 1030 30.42 859 25.37 20.6 69.1 22 -1.7 29
14:15 1030 30.42 859 25.37 20.7 69.3 19 -3.2 26.2
14:20 1030 30.42 859 25.37 20.6 69.2 20 -3.1 26.4
14:25 1030 30.42 859 25.37 20.9 69.5 19 -3.3 26.1
14:30 1030 30.42 859 25.37 20.1 68.2 20 -3.1 26.4
14:35 1030 30.42 859 25.37 20.7 69.2 20 -2.8 27
14:40 1030 30.42 859 25.37 21.2 70.2 19 -3.3 26.1
14:45 1030 30.42 859 25.37 20.8 69.4 20 -2.7 27.1
14:50 1030 30.42 859 25.37 20.9 69.7 19 -3 26.5
14:55 1029 30.39 859 25.37 21.2 70.1 20 -2.3 27.9
15:00 1029 30.39 859 25.37 20.8 69.4 21 -2.1 28.3
15:05 1029 30.39 859 25.37 21 69.7 19 -3.5 25.6
15:10 1029 30.39 859 25.37 21.6 70.8 19 -2.7 27.2
15:15 1029 30.39 859 25.37 21.3 70.4 19 -3.2 26.3
15:20 1029 30.39 859 25.37 21 69.9 19 -3.5 25.7
15:25 1029 30.39 858 25.34 21.5 70.6 19 -2.8 27
15:30 1029 30.39 858 25.34 21.4 70.5 19 -3.1 26.4
15:35 1029 30.39 858 25.34 21.9 71.3 19 -2.5 27.5
15:40 1029 30.39 858 25.34 22 71.6 19 -2.5 27.4
15:45 1029 30.39 858 25.34 22.4 72.4 19 -2.5 27.6
15:50 1029 30.39 858 25.34 22.3 72.1 19 -2.6 27.3
15:55 1029 30.39 858 25.34 22.6 72.7 19 -2 28.3
16:00 1029 30.39 858 25.34 22.2 72 19 -2.5 27.5
16:05 1029 30.39 858 25.34 22.2 71.9 18 -2.9 26.7
16:10 1029 30.39 858 25.34 22 71.6 19 -2.3 27.9
16:15 1029 30.39 858 25.34 22.3 72.1 18 -2.7 27.1
16:20 1029 30.39 858 25.34 22.1 71.9 20 -1.7 29
16:25 1029 30.39 858 25.34 22.4 72.3 20 -1.5 29.3
16:30 1029 30.39 858 25.34 22.9 73.3 20 -1.1 30
16:35 1029 30.39 858 25.34 22.7 72.9 20 -1.5 29.2
16:40 1029 30.39 858 25.34 22.9 73.1 19 -1.7 28.9
16:45 1029 30.39 858 25.34 22.4 72.3 20 -1.2 29.8
16:50 1029 30.39 858 25.34 22.4 72.3 19 -2.4 27.7
16:55 1029 30.39 858 25.34 22.8 73 19 -1.6 29.1
17:00 1029 30.39 858 25.34 22.6 72.7 18 -2.4 27.7
17:05 1029 30.39 858 25.34 22.5 72.5 19 -2 28.5
17:10 1029 30.39 858 25.34 22.3 72.1 19 -2 28.4
17:15 1028 30.36 858 25.34 22.3 72.1 20 -1.5 29.2
17:20 1028 30.36 858 25.34 22.5 72.4 20 -1.7 28.9
17:25 1028 30.36 858 25.34 22.5 72.4 20 -1.1 29.9
17:30 1028 30.36 858 25.34 22.7 72.8 20 -1.4 29.5
17:35 1028 30.36 858 25.34 22.6 72.6 20 -1.4 29.5
17:40 1028 30.36 858 25.34 22.5 72.4 20 -1.1 30
17:45 1028 30.36 858 25.34 22.3 72.1 20 -1.3 29.6
17:50 1028 30.36 858 25.34 22.2 71.9 20 -1.5 29.3
17:55 1028 30.36 858 25.34 22.2 71.9 20 -1.4 29.5
18:00 1028 30.36 858 25.34 22.3 72.1 21 -0.8 30.6
18:05 1028 30.36 858 25.34 22.4 72.3 21 -0.9 30.4
18:10 1028 30.36 858 25.34 22.4 72.3 20 -1.7 28.9
18:15 1028 30.36 858 25.34 21.8 71.2 22 -0.8 30.5
18:20 1028 30.36 858 25.34 21.6 70.9 22 -0.6 31
18:25 1028 30.36 858 25.34 21.6 70.8 22 -0.6 30.9
18:30 1028 30.36 858 25.34 21.3 70.4 22 -0.8 30.5
18:35 1028 30.36 857 25.31 20.7 69.3 23 -0.9 30.3
18:40 1028 30.36 857 25.31 20.1 68.1 26 0.1 32.1
18:45 1028 30.36 857 25.31 19.9 67.8 27 0.7 33.3
18:50 1028 30.36 857 25.31 19.8 67.6 25 -0.7 30.7
18:55 1028 30.36 858 25.34 19.6 67.2 25 -0.8 30.5
19:00 1028 30.36 858 25.34 19.3 66.8 26 -0.6 31
19:05 1028 30.36 858 25.34 19.1 66.3 26 -0.8 30.6
19:10 1028 30.36 858 25.34 18.9 66.1 27 -0.2 31.7
19:15 1028 30.36 858 25.34 18.9 66 30 1 33.9
19:20 1028 30.36 857 25.31 19 66.1 30 1.1 34
19:25 1028 30.36 857 25.31 18.8 65.9 32 1.8 35.3
19:30 1028 30.36 857 25.31 18.5 65.3 34 2.5 36.5
19:35 1028 30.36 857 25.31 17.8 64 37 3.2 37.7
19:40 1028 30.36 857 25.31 16.8 62.2 39 3.1 37.5
19:45 1028 30.36 857 25.31 16 60.9 46 4.6 40.2
19:50 1028 30.36 857 25.31 15.7 60.2 41 2.6 36.6
19:55 1028 30.36 857 25.31 15.3 59.5 42 2.4 36.4
20:00 1028 30.36 857 25.31 15 58.9 44 2.8 37.1
20:05 1028 30.36 857 25.31 14.8 58.6 44 2.7 36.9
20:10 1028 30.36 857 25.31 14.6 58.3 47 3.5 38.3
20:15 1028 30.36 857 25.31 14.3 57.8 49 3.7 38.7
20:20 1028 30.36 857 25.31 14.2 57.6 49 3.9 38.9
20:25 1028 30.36 858 25.34 14 57.2 48 3.3 37.9
20:30 1028 30.36 858 25.34 13.3 56 49 3 37.4
20:35 1028 30.36 858 25.34 13.1 55.5 48 2.2 36
20:40 1029 30.39 858 25.34 13.3 55.9 45 1.7 35.1
20:45 1029 30.39 858 25.34 13.4 56.1 43 1 33.8
20:50 1029 30.39 858 25.34 13.8 56.8 41 0.8 33.5
20:55 1029 30.39 858 25.34 13.9 57 43 1.5 34.7
21:00 1029 30.39 858 25.34 13.5 56.3 45 1.8 35.3
21:05 1029 30.39 858 25.34 13.1 55.7 45 1.7 35
21:10 1028 30.36 858 25.34 13.2 55.8 45 1.5 34.7
21:15 1029 30.39 858 25.34 13.3 55.9 45 1.6 34.9
21:20 1028 30.36 858 25.34 13.6 56.5 41 0.8 33.4
21:25 1028 30.36 858 25.34 14.2 57.5 39 0.7 33.2
21:30 1028 30.36 858 25.34 14.3 57.7 40 0.8 33.5
21:35 1028 30.36 858 25.34 14.2 57.5 41 1.3 34.4
21:40 1028 30.36 858 25.34 13.7 56.6 42 1.3 34.3
21:45 1028 30.36 858 25.34 13.5 56.2 43 1.2 34.2
21:50 1028 30.36 858 25.34 13.2 55.8 44 1.3 34.4
21:55 1028 30.36 858 25.34 12.9 55.2 45 1.3 34.4
22:00 1028 30.36 858 25.34 12.7 54.8 46 1.4 34.6
22:05 1028 30.36 858 25.34 12.4 54.3 47 1.3 34.4
22:10 1028 30.36 858 25.34 12.4 54.3 46 1.2 34.1
22:15 1028 30.36 858 25.34 12.5 54.6 46 1.3 34.3
22:20 1028 30.36 858 25.34 12.6 54.6 46 1.3 34.4
22:25 1028 30.36 858 25.34 12.4 54.4 46 1.2 34.2
22:30 1028 30.36 858 25.34 12.5 54.5 44 0.8 33.4
22:35 1028 30.36 858 25.34 12.7 54.9 45 1 33.9
22:40 1028 30.36 858 25.34 12.8 55 44 1 33.8
22:45 1028 30.36 858 25.34 12.8 55 44 0.9 33.7
22:50 1028 30.36 858 25.34 12.8 55 45 1.1 34.1
22:55 1028 30.36 858 25.34 12.5 54.6 46 1.3 34.3
23:00 1028 30.36 858 25.34 12.4 54.3 45 0.8 33.5
23:05 1028 30.36 858 25.34 12.6 54.6 44 0.8 33.5
23:10 1028 30.36 858 25.34 12.6 54.6 45 1 33.7
23:15 1028 30.36 858 25.34 12.6 54.7 45 1.1 34
23:20 1028 30.36 858 25.34 12.5 54.4 46 1.1 34
23:25 1029 30.39 858 25.34 12.4 54.2 45 0.8 33.4
23:30 1029 30.39 858 25.34 12.5 54.6 45 1 33.8
23:35 1029 30.39 858 25.34 12.7 54.8 43 0.6 33
23:40 1029 30.39 858 25.34 12.8 55.1 47 1.8 35.3
23:45 1029 30.39 858 25.34 12.1 53.7 49 1.9 35.3
23:50 1029 30.39 858 25.34 11.9 53.4 48 1.3 34.3
23:55 1029 30.39 858 25.34 12.2 54 46 0.8 33.5
24:00 1029 30.39 858 25.34 12.1 53.7 48 1.5 34.7